Glennallen, AK (99588)

7:30 PM AKST on December 10, 2016 (GMT -0900)
Glennallen School | | Change Station

Elev 1500 ft 62.11 °N, 145.53 °W | Updated 8 seconds ago

Clear
Clear
-25.4 °F
Feels Like -25 °F
N
0.0
Wind Variable Wind from WNW
Gusts 0.0 mph

Today
High -- | Low -- °F
--% Chance of Precip.
Yesterday
High -- | Low -- °F
Precip. -- in
Pressure 30.69 in
Visibility 10.0 miles
Clouds Clear
Windchill -25 °F
Dew Point -30 °F
Humidity 77%
Rainfall 0.00 in
Snow Depth Not available.
9:56 AM 3:14 PM
Waxing Gibbous, 89% visible
METAR PAGK 110353Z AUTO 00000KT 10SM CLR M34/M37 A3037 RMK AO2 SLP390 T13391367 TSNO
Pressure 30.69 in
Visibility 10.0 miles
Clouds Clear
Windchill -25 °F
Dew Point -30 °F
Humidity 77%
Rainfall 0.00 in
Snow Depth Not available.
9:56 AM 3:14 PM
Waxing Gibbous, 89% visible
METAR PAGK 110353Z AUTO 00000KT 10SM CLR M34/M37 A3037 RMK AO2 SLP390 T13391367 TSNO

10-Day Weather Forecast

Almanac

Astronomy

Dec. 10, 2016 Rise Set
Actual Time
Civil Twilight
Nautical Twilight
Astronomical Twilight
Moon
Length of Visible Light
Length of Day
Tomorrow will be .
, % of the Moon is Illuminated

Today's Extremes

State Highs State Lows

Community

WunderPhotos

Upload Photos

1,956,705 photos uploaded!

WunderBlog® & News

Nearby

Air Quality

  Air Quality AQ Index Pollutant
Not available.

Snow Depth

Station Depth Elevation

Earthquake Activity

City Distance Mag. Time & Date
Minimum magnitude displayed is 2.5.

Coastal Water Temperatures

Place Temperature

Stations

Nearby Weather Stations

Station Location Temp. Windchill Dew Point Humidity Wind Precip. Elev Updated Type
                   

Watches & Warnings

There are currently no watches in effect.